EPH weather

Ephrata Municipal Airport
Ephrata, Washington, United States

Public forecast

Using degrees Fahrenheit for public forecast. Weather courtesy of forecast.io.

Current aviation weather report (METAR) for Ephrata Municipal Airport

Retrieved 2020/01/26 20:11 UTC (0 seconds ago):

KEPH 262011Z AUTO 20006KT 10SM OVC016 06/04 A2998 RMK AO2 T00610039

Closest aviation forecast (TAF) to Ephrata Municipal Airport

Closest forecast is Grant County International Airport, 10.0 nm (18.5 km) SE. Retrieved 2020/01/26 18:24 UTC (2 hours ago):

TAF KMWH 261723Z 2618/2718 00000KT P6SM BKN008 OVC030 FM262000 20005KT P6SM SCT025 FM270800 VRB03KT 1SM BR BKN003 TEMPO 2708/2709 -SHRASN